createdAt,value
2018-06-24T00:00:45.691Z,3.58
2018-06-24T00:03:14.876Z,3.50
2018-06-24T00:05:45.059Z,3.50
2018-06-24T00:08:14.138Z,3.30
2018-06-24T00:10:43.266Z,3.13
2018-06-24T00:13:12.563Z,3.47
2018-06-24T00:15:41.658Z,3.50
2018-06-24T00:18:10.749Z,3.90
2018-06-24T00:20:39.880Z,3.20
2018-06-24T00:23:09.458Z,3.30
2018-06-24T00:25:39.576Z,3.70
2018-06-24T00:28:08.697Z,3.00
2018-06-24T00:30:37.773Z,2.90
2018-06-24T00:33:06.962Z,3.20
2018-06-24T00:35:36.030Z,3.30
2018-06-24T00:38:05.717Z,3.83
2018-06-24T00:40:34.826Z,3.70
2018-06-24T00:43:03.959Z,3.13
2018-06-24T00:45:33.050Z,3.40
2018-06-24T00:48:02.252Z,3.13
2018-06-24T00:50:31.349Z,3.40
2018-06-24T00:53:00.453Z,3.23
2018-06-24T00:55:29.614Z,3.70
2018-06-24T00:57:58.706Z,3.67
2018-06-24T01:00:27.817Z,3.07
2018-06-24T01:02:56.912Z,3.22
2018-06-24T01:05:26.008Z,3.30
2018-06-24T01:07:55.065Z,3.27
2018-06-24T01:10:24.120Z,3.50
2018-06-24T01:12:53.212Z,3.33
2018-06-24T01:15:22.278Z,3.10
2018-06-24T01:17:51.367Z,3.20
2018-06-24T01:20:20.493Z,3.65
2018-06-24T01:22:49.620Z,3.77
2018-06-24T01:25:18.773Z,3.40
2018-06-24T01:27:47.848Z,3.10
2018-06-24T01:30:16.976Z,3.30
2018-06-24T01:32:46.115Z,3.70
2018-06-24T01:35:15.236Z,3.50
2018-06-24T01:37:44.301Z,3.43
2018-06-24T01:40:13.464Z,4.12
2018-06-24T01:42:43.465Z,3.70
2018-06-24T01:45:12.541Z,3.27
2018-06-24T01:47:41.879Z,4.80
2018-06-24T01:50:11.140Z,3.63
2018-06-24T01:52:40.247Z,5.50
2018-06-24T01:55:09.417Z,8.00
2018-06-24T01:57:38.494Z,9.50
2018-06-24T02:00:07.624Z,9.57
2018-06-24T02:02:36.701Z,8.35
2018-06-24T02:05:05.865Z,6.67
2018-06-24T02:07:34.942Z,6.90
2018-06-24T02:10:04.024Z,8.23
2018-06-24T02:12:33.222Z,9.30
2018-06-24T02:15:02.358Z,9.27
2018-06-24T02:17:32.177Z,10.23
2018-06-24T02:20:01.249Z,10.87
2018-06-24T02:22:30.318Z,10.80
2018-06-24T02:24:59.414Z,10.68
2018-06-24T02:27:28.708Z,9.80
2018-06-24T02:29:57.774Z,10.23
2018-06-24T02:32:26.921Z,11.40
2018-06-24T02:34:56.049Z,10.60
2018-06-24T02:37:25.241Z,9.97
2018-06-24T02:39:54.389Z,10.83
2018-06-24T02:42:23.437Z,10.95
2018-06-24T02:44:52.614Z,16.30
2018-06-24T02:47:22.197Z,27.30
2018-06-24T02:49:51.309Z,39.27
2018-06-24T02:52:20.460Z,53.48
2018-06-24T02:54:49.735Z,58.33
2018-06-24T02:57:18.828Z,40.70
2018-06-24T02:59:47.952Z,31.87
2018-06-24T03:02:17.346Z,26.35
2018-06-24T03:04:46.471Z,24.80
2018-06-24T03:07:15.525Z,21.17
2018-06-24T03:09:44.644Z,17.73
2018-06-24T03:12:13.706Z,16.47
2018-06-24T03:14:42.782Z,13.67
2018-06-24T03:17:11.913Z,14.00
2018-06-24T03:19:41.061Z,12.47
2018-06-24T03:22:10.216Z,11.20
2018-06-24T03:24:39.347Z,11.47
2018-06-24T03:27:08.445Z,16.07
2018-06-24T03:29:37.612Z,20.97
2018-06-24T03:32:06.718Z,20.47
2018-06-24T03:34:35.954Z,19.90
2018-06-24T03:37:05.416Z,18.00
2018-06-24T03:39:34.517Z,21.77
2018-06-24T03:42:03.610Z,23.07
2018-06-24T03:44:32.712Z,22.23
2018-06-24T03:47:01.871Z,19.83
2018-06-24T03:49:30.990Z,23.17
2018-06-24T03:52:00.111Z,33.30
2018-06-24T03:54:29.220Z,34.37
2018-06-24T03:56:58.903Z,42.30
2018-06-24T03:59:28.108Z,46.80
2018-06-24T04:01:57.219Z,44.43
2018-06-24T04:04:26.293Z,40.97
2018-06-24T04:06:55.386Z,37.20
2018-06-24T04:09:24.521Z,45.40
2018-06-24T04:11:53.621Z,41.92
2018-06-24T04:14:22.677Z,25.97
2018-06-24T04:16:51.803Z,24.33
2018-06-24T04:19:21.289Z,26.85
2018-06-24T04:21:50.450Z,27.37
2018-06-24T04:24:19.561Z,27.40
2018-06-24T04:26:49.285Z,28.73
2018-06-24T04:29:18.374Z,25.70
2018-06-24T04:31:47.486Z,23.73
2018-06-24T04:34:16.989Z,25.45
2018-06-24T04:36:46.211Z,22.60
2018-06-24T04:39:15.260Z,21.77
2018-06-24T04:41:44.507Z,22.33
2018-06-24T04:44:13.624Z,19.55
2018-06-24T04:46:42.742Z,20.33
2018-06-24T04:49:11.934Z,18.15
2018-06-24T04:51:41.065Z,17.87
2018-06-24T04:54:10.147Z,17.67
2018-06-24T04:56:39.226Z,17.20
2018-06-24T04:59:08.749Z,16.90
2018-06-24T05:01:37.926Z,15.00
2018-06-24T05:04:07.010Z,13.23
2018-06-24T05:06:36.207Z,13.43
2018-06-24T05:09:07.799Z,12.10
2018-06-24T05:11:36.885Z,11.60
2018-06-24T05:14:06.582Z,9.93
2018-06-24T05:16:35.776Z,6.43
2018-06-24T05:19:05.141Z,5.35
2018-06-24T05:21:34.280Z,4.37
2018-06-24T05:24:03.368Z,4.00
2018-06-24T05:26:32.461Z,4.33
2018-06-24T05:29:01.601Z,4.20
2018-06-24T05:31:30.702Z,4.57
2018-06-24T05:33:59.814Z,4.30
2018-06-24T05:36:28.895Z,4.60
2018-06-24T05:38:58.046Z,5.20
2018-06-24T05:41:27.134Z,4.55
2018-06-24T05:43:56.199Z,4.30
2018-06-24T05:46:25.326Z,4.50
2018-06-24T05:48:54.559Z,4.50
2018-06-24T05:51:23.617Z,4.45
2018-06-24T05:53:52.710Z,4.53
2018-06-24T05:56:21.809Z,5.05
2018-06-24T05:58:50.950Z,4.80
2018-06-24T06:01:20.017Z,4.60
2018-06-24T06:03:49.090Z,4.70
2018-06-24T06:06:18.212Z,4.58
2018-06-24T06:08:47.314Z,4.60
2018-06-24T06:11:16.350Z,4.87
2018-06-24T06:13:45.509Z,4.70
2018-06-24T06:16:14.694Z,4.30
2018-06-24T06:18:43.706Z,4.73
2018-06-24T06:21:12.793Z,4.60
2018-06-24T06:23:41.870Z,4.63
2018-06-24T06:26:11.054Z,4.57
2018-06-24T06:28:40.113Z,4.47
2018-06-24T06:31:09.228Z,4.27
2018-06-24T06:33:38.325Z,4.63
2018-06-24T06:36:07.450Z,4.40
2018-06-24T06:38:36.569Z,3.73
2018-06-24T06:41:05.690Z,5.00
2018-06-24T06:43:34.859Z,4.50
2018-06-24T06:46:07.282Z,4.67
2018-06-24T06:48:36.457Z,4.30
2018-06-24T06:51:06.386Z,4.50
2018-06-24T06:53:35.563Z,4.23
2018-06-24T06:56:05.881Z,4.57
2018-06-24T06:58:35.001Z,4.45
2018-06-24T07:01:04.055Z,4.53
2018-06-24T07:03:33.335Z,4.20
2018-06-24T07:06:02.434Z,4.22
2018-06-24T07:08:31.529Z,4.67
2018-06-24T07:11:00.617Z,4.30
2018-06-24T07:13:29.682Z,5.20
2018-06-24T07:15:58.847Z,4.80
2018-06-24T07:18:27.910Z,4.33
2018-06-24T07:20:56.958Z,4.53
2018-06-24T07:23:26.196Z,5.73
2018-06-24T07:25:55.282Z,4.50
2018-06-24T07:28:24.375Z,5.10
2018-06-24T07:30:54.030Z,4.37
2018-06-24T07:33:23.110Z,5.00
2018-06-24T07:35:52.206Z,5.30
2018-06-24T07:38:21.321Z,4.80
2018-06-24T07:40:50.398Z,5.20
2018-06-24T07:43:19.469Z,4.97
2018-06-24T07:45:48.562Z,5.03
2018-06-24T07:48:17.774Z,5.30
2018-06-24T07:50:46.902Z,5.53
2018-06-24T07:53:16.085Z,5.35
2018-06-24T07:55:45.169Z,6.35
2018-06-24T07:58:14.242Z,5.53
2018-06-24T08:00:43.375Z,5.70
2018-06-24T08:03:12.579Z,5.40
2018-06-24T08:05:41.630Z,5.30
2018-06-24T08:08:10.670Z,5.67
2018-06-24T08:10:39.742Z,6.43
2018-06-24T08:13:08.845Z,6.30
2018-06-24T08:15:38.012Z,7.10
2018-06-24T08:18:07.373Z,6.53
2018-06-24T08:20:36.489Z,6.07
2018-06-24T08:23:06.209Z,6.50
2018-06-24T08:25:35.334Z,5.90
2018-06-24T08:28:04.538Z,6.10
2018-06-24T08:30:33.637Z,5.20
2018-06-24T08:33:02.725Z,5.10
2018-06-24T08:35:31.898Z,5.80
2018-06-24T08:38:00.993Z,5.43
2018-06-24T08:40:30.138Z,5.13
2018-06-24T08:42:59.382Z,4.95
2018-06-24T08:45:28.454Z,5.20
2018-06-24T08:47:57.552Z,4.90
2018-06-24T08:50:26.626Z,4.90
2018-06-24T08:52:55.697Z,5.17
2018-06-24T08:55:25.575Z,4.77
2018-06-24T08:57:54.745Z,5.20
2018-06-24T09:00:23.842Z,5.22
2018-06-24T09:02:54.101Z,4.77
2018-06-24T09:05:23.531Z,5.83
2018-06-24T09:07:52.681Z,5.60
2018-06-24T09:10:21.865Z,4.97
2018-06-24T09:12:50.998Z,5.53
2018-06-24T09:15:20.143Z,5.83
2018-06-24T09:17:49.253Z,5.90
2018-06-24T09:20:18.350Z,5.70
2018-06-24T09:22:47.405Z,5.53
2018-06-24T09:25:16.478Z,5.62
2018-06-24T09:27:45.669Z,6.00
2018-06-24T09:30:14.733Z,5.50
2018-06-24T09:32:43.916Z,5.50
2018-06-24T09:35:12.978Z,5.28
2018-06-24T09:37:42.206Z,5.17
2018-06-24T09:40:11.274Z,5.58
2018-06-24T09:42:40.808Z,5.40
2018-06-24T09:45:09.900Z,6.47
2018-06-24T09:47:39.000Z,5.95
2018-06-24T09:50:08.553Z,6.03
2018-06-24T09:52:37.925Z,5.13
2018-06-24T09:55:07.054Z,4.73
2018-06-24T09:57:36.141Z,5.43
2018-06-24T10:00:07.178Z,5.63
2018-06-24T10:02:36.229Z,5.40
2018-06-24T10:05:05.354Z,5.53
2018-06-24T10:07:34.546Z,6.03
2018-06-24T10:10:03.663Z,6.47
2018-06-24T10:12:32.746Z,4.80
2018-06-24T10:15:01.881Z,4.83
2018-06-24T10:17:31.075Z,4.37
2018-06-24T10:20:00.227Z,4.40
2018-06-24T10:22:29.588Z,4.70
2018-06-24T10:24:58.765Z,4.50
2018-06-24T10:27:27.830Z,4.63
2018-06-24T10:29:56.921Z,3.97
2018-06-24T10:32:25.993Z,4.00
2018-06-24T10:34:55.438Z,4.62
2018-06-24T10:37:24.485Z,4.60
2018-06-24T10:39:53.577Z,4.40
2018-06-24T10:42:22.971Z,4.20
2018-06-24T10:44:52.141Z,4.53
2018-06-24T10:47:21.255Z,3.73
2018-06-24T10:49:50.381Z,5.67
2018-06-24T10:52:19.477Z,4.00
2018-06-24T10:54:48.668Z,4.08
2018-06-24T10:57:17.778Z,3.97
2018-06-24T10:59:47.583Z,4.17
2018-06-24T11:02:16.722Z,4.97
2018-06-24T11:04:45.749Z,4.10
2018-06-24T11:07:14.845Z,4.43
2018-06-24T11:09:43.950Z,3.90
2018-06-24T11:12:13.426Z,3.15
2018-06-24T11:14:42.613Z,3.43
2018-06-24T11:17:11.750Z,3.67
2018-06-24T11:19:40.947Z,3.13
2018-06-24T11:22:10.044Z,3.40
2018-06-24T11:24:39.206Z,3.30
2018-06-24T11:27:08.363Z,3.20
2018-06-24T11:29:37.440Z,3.43
2018-06-24T11:32:06.518Z,3.67
2018-06-24T11:34:35.662Z,3.70
2018-06-24T11:37:06.016Z,3.60
2018-06-24T11:39:35.080Z,3.20
2018-06-24T11:42:04.170Z,3.65
2018-06-24T11:44:33.269Z,3.63
2018-06-24T11:47:02.827Z,3.33
2018-06-24T11:49:31.939Z,4.70
2018-06-24T11:52:01.137Z,4.20
2018-06-24T11:54:30.262Z,3.20
2018-06-24T11:56:59.298Z,3.87
2018-06-24T11:59:28.372Z,3.20
2018-06-24T12:01:57.488Z,3.17
2018-06-24T12:04:26.833Z,3.30
2018-06-24T12:06:55.976Z,3.50
2018-06-24T12:09:25.034Z,3.63
2018-06-24T12:11:54.185Z,3.37
2018-06-24T12:14:23.438Z,3.00
2018-06-24T12:16:52.507Z,3.08
2018-06-24T12:19:21.650Z,3.20
2018-06-24T12:21:50.743Z,3.23
2018-06-24T12:24:19.831Z,2.95
2018-06-24T12:26:48.919Z,3.30
2018-06-24T12:29:18.066Z,3.20
2018-06-24T12:31:47.154Z,3.57
2018-06-24T12:34:16.264Z,3.03
2018-06-24T12:36:45.672Z,2.80
2018-06-24T12:39:16.980Z,3.30
2018-06-24T12:41:46.349Z,2.80
2018-06-24T12:44:15.429Z,3.50
2018-06-24T12:46:44.543Z,3.00
2018-06-24T12:49:13.684Z,2.90
2018-06-24T12:51:42.895Z,2.80
2018-06-24T12:54:11.990Z,2.87
2018-06-24T12:56:41.112Z,2.70
2018-06-24T12:59:10.455Z,3.00
2018-06-24T13:01:39.470Z,3.00
2018-06-24T13:04:08.533Z,3.10
2018-06-24T13:06:38.662Z,3.00
2018-06-24T13:09:09.007Z,3.20
2018-06-24T13:11:38.165Z,2.90
2018-06-24T13:14:07.445Z,3.10
2018-06-24T13:16:36.495Z,3.03
2018-06-24T13:19:06.647Z,2.98
2018-06-24T13:21:35.737Z,3.47
2018-06-24T13:24:06.081Z,2.58
2018-06-24T13:26:35.176Z,3.00
2018-06-24T13:29:04.239Z,2.80
2018-06-24T13:31:33.391Z,3.13
2018-06-24T13:34:02.501Z,2.80
2018-06-24T13:36:31.730Z,2.90
2018-06-24T13:39:00.879Z,2.90
2018-06-24T13:41:30.015Z,2.93
2018-06-24T13:43:59.225Z,3.40
2018-06-24T13:46:28.369Z,3.10
2018-06-24T13:48:57.502Z,3.13
2018-06-24T13:51:26.607Z,3.03
2018-06-24T13:53:55.724Z,2.70
2018-06-24T13:56:24.852Z,3.13
2018-06-24T13:58:54.813Z,3.00
2018-06-24T14:01:23.917Z,3.20
2018-06-24T14:03:53.042Z,3.30
2018-06-24T14:06:22.109Z,3.10
2018-06-24T14:08:51.206Z,2.90
2018-06-24T14:11:20.373Z,2.80
2018-06-24T14:13:49.577Z,3.07
2018-06-24T14:16:18.693Z,2.83
2018-06-24T14:18:47.955Z,2.30
2018-06-24T14:21:17.114Z,4.37
2018-06-24T14:23:47.055Z,2.93
2018-06-24T14:26:16.478Z,2.53
2018-06-24T14:28:45.757Z,2.97
2018-06-24T14:31:15.237Z,2.83
2018-06-24T14:33:44.401Z,2.73
2018-06-24T14:36:13.581Z,2.60
2018-06-24T14:38:44.057Z,2.50
2018-06-24T14:41:13.310Z,2.90
2018-06-24T14:43:42.821Z,2.80
2018-06-24T14:46:12.007Z,4.05
2018-06-24T14:48:41.232Z,2.40
2018-06-24T14:51:10.718Z,2.42
2018-06-24T14:53:39.918Z,2.57
2018-06-24T14:56:09.520Z,2.80
2018-06-24T14:58:38.810Z,1.90
2018-06-24T15:01:07.921Z,1.83
2018-06-24T15:03:37.135Z,1.90
2018-06-24T15:06:06.412Z,1.90
2018-06-24T15:08:35.502Z,1.93
2018-06-24T15:11:06.242Z,2.00
2018-06-24T15:13:35.340Z,2.30
2018-06-24T15:16:06.239Z,2.10
2018-06-24T15:18:35.374Z,2.40
2018-06-24T15:21:05.903Z,2.40
2018-06-24T15:23:38.589Z,2.70
2018-06-24T15:26:07.837Z,2.47
2018-06-24T15:28:37.966Z,2.27
2018-06-24T15:31:07.156Z,2.50
2018-06-24T15:33:37.178Z,2.60
2018-06-24T15:36:06.662Z,2.70
2018-06-24T15:38:35.823Z,2.70
2018-06-24T15:41:05.119Z,2.73
2018-06-24T15:43:34.223Z,3.30
2018-06-24T15:46:03.349Z,3.13
2018-06-24T15:48:32.520Z,3.70
2018-06-24T15:51:01.664Z,3.10
2018-06-24T15:53:30.770Z,3.80
2018-06-24T15:56:00.291Z,4.33
2018-06-24T15:58:29.537Z,2.60
2018-06-24T16:00:58.688Z,2.83
2018-06-24T16:03:27.983Z,3.13
2018-06-24T16:05:57.157Z,3.00
2018-06-24T16:08:26.308Z,3.23
2018-06-24T16:10:55.540Z,3.70
2018-06-24T16:13:24.722Z,3.90
2018-06-24T16:15:53.852Z,4.07
2018-06-24T16:18:23.318Z,3.02
2018-06-24T16:20:52.735Z,2.97
2018-06-24T16:23:21.804Z,3.15
2018-06-24T16:25:51.051Z,3.10
2018-06-24T16:28:20.389Z,2.87
2018-06-24T16:30:49.553Z,3.20
2018-06-24T16:33:18.710Z,3.50
2018-06-24T16:35:47.933Z,3.23
2018-06-24T16:38:17.065Z,3.00
2018-06-24T16:40:46.198Z,3.20
2018-06-24T16:43:15.262Z,3.47
2018-06-24T16:45:44.517Z,3.77
2018-06-24T16:48:13.640Z,4.00
2018-06-24T16:50:42.768Z,4.20
2018-06-24T16:53:11.961Z,3.60
2018-06-24T16:55:41.131Z,3.90
2018-06-24T16:58:10.269Z,3.97
2018-06-24T17:00:39.390Z,4.17
2018-06-24T17:03:08.577Z,3.57
2018-06-24T17:05:37.826Z,4.00
2018-06-24T17:08:07.559Z,4.33
2018-06-24T17:10:36.641Z,5.00
2018-06-24T17:13:06.243Z,5.40
2018-06-24T17:15:35.396Z,6.30
2018-06-24T17:18:04.526Z,6.53
2018-06-24T17:20:33.594Z,7.17
2018-06-24T17:23:02.728Z,8.47
2018-06-24T17:25:32.541Z,8.50
2018-06-24T17:28:01.728Z,8.17
2018-06-24T17:30:30.815Z,10.07
2018-06-24T17:32:59.955Z,10.80
2018-06-24T17:35:29.112Z,10.10
2018-06-24T17:37:58.472Z,10.50
2018-06-24T17:40:27.579Z,9.90
2018-06-24T17:42:57.205Z,10.00
2018-06-24T17:45:26.490Z,10.60
2018-06-24T17:47:55.648Z,10.27
2018-06-24T17:50:24.810Z,10.97
2018-06-24T17:52:54.062Z,17.60
2018-06-24T17:55:23.171Z,10.28
2018-06-24T17:57:53.175Z,10.20
2018-06-24T18:00:22.300Z,10.10
2018-06-24T18:02:51.727Z,9.73
2018-06-24T18:05:20.995Z,8.53
2018-06-24T18:07:50.535Z,9.00
2018-06-24T18:10:19.693Z,9.47
2018-06-24T18:12:48.798Z,9.07
2018-06-24T18:15:18.026Z,8.55
2018-06-24T18:17:47.235Z,7.80
2018-06-24T18:20:16.759Z,7.73
2018-06-24T18:22:45.810Z,7.13
2018-06-24T18:25:15.005Z,7.12
2018-06-24T18:27:44.135Z,7.17
2018-06-24T18:30:13.251Z,7.33
2018-06-24T18:32:48.267Z,6.20
2018-06-24T18:35:12.070Z,6.05
2018-06-24T18:37:41.306Z,6.00
2018-06-24T18:40:10.736Z,6.20
2018-06-24T18:42:40.009Z,6.13
2018-06-24T18:45:09.827Z,5.63
2018-06-24T18:47:38.926Z,5.90
2018-06-24T18:50:08.128Z,6.70
2018-06-24T18:52:37.889Z,5.70
2018-06-24T18:55:07.047Z,6.07
2018-06-24T18:57:36.143Z,5.80
2018-06-24T19:00:06.302Z,5.95
2018-06-24T19:02:35.504Z,6.50
2018-06-24T19:05:05.111Z,5.90
2018-06-24T19:07:34.277Z,5.30
2018-06-24T19:10:03.548Z,5.57
2018-06-24T19:12:32.756Z,7.07
2018-06-24T19:15:01.852Z,5.10
2018-06-24T19:17:31.069Z,5.57
2018-06-24T19:20:01.414Z,5.17
2018-06-24T19:22:30.578Z,5.23
2018-06-24T19:24:59.808Z,5.43
2018-06-24T19:27:29.080Z,5.95
2018-06-24T19:29:58.306Z,4.40
2018-06-24T19:32:27.426Z,4.47
2018-06-24T19:34:56.550Z,4.30
2018-06-24T19:37:25.734Z,3.93
2018-06-24T19:39:55.052Z,4.50
2018-06-24T19:42:24.300Z,3.70
2018-06-24T19:44:53.519Z,3.70
2018-06-24T19:47:22.852Z,4.17
2018-06-24T19:49:52.210Z,4.27
2018-06-24T19:52:21.310Z,3.92
2018-06-24T19:54:50.880Z,3.80
2018-06-24T19:57:21.175Z,4.15
2018-06-24T19:59:50.301Z,3.67
2018-06-24T20:02:19.545Z,5.62
2018-06-24T20:04:50.699Z,5.50
2018-06-24T20:07:20.726Z,5.20
2018-06-24T20:09:50.365Z,4.50
2018-06-24T20:12:19.472Z,5.10
2018-06-24T20:14:49.173Z,4.97
2018-06-24T20:17:18.397Z,4.03
2018-06-24T20:19:48.682Z,3.57
2018-06-24T20:22:17.907Z,3.25
2018-06-24T20:24:47.103Z,3.10
2018-06-24T20:27:16.387Z,3.70
2018-06-24T20:29:45.873Z,3.80
2018-06-24T20:32:15.322Z,4.07
2018-06-24T20:34:44.538Z,4.37
2018-06-24T20:37:14.287Z,2.90
2018-06-24T20:39:43.543Z,3.37
2018-06-24T20:42:12.804Z,3.10
2018-06-24T20:44:42.047Z,3.00
2018-06-24T20:47:11.278Z,3.00
2018-06-24T20:49:40.509Z,3.17
2018-06-24T20:52:09.931Z,2.80
2018-06-24T20:54:39.026Z,2.47
2018-06-24T20:57:08.445Z,2.50
2018-06-24T20:59:37.596Z,2.87
2018-06-24T21:02:06.736Z,2.83
2018-06-24T21:04:42.612Z,2.80
2018-06-24T21:07:11.697Z,2.70
2018-06-24T21:09:40.825Z,2.70
2018-06-24T21:12:10.090Z,2.80
2018-06-24T21:14:39.246Z,2.70
2018-06-24T21:17:08.339Z,2.40
2018-06-24T21:19:37.459Z,3.33
2018-06-24T21:22:06.634Z,2.33
2018-06-24T21:24:37.472Z,2.70
2018-06-24T21:27:12.834Z,2.80
2018-06-24T21:29:41.916Z,2.83
2018-06-24T21:32:11.041Z,2.50
2018-06-24T21:34:40.162Z,2.40
2018-06-24T21:37:09.320Z,2.70
2018-06-24T21:39:38.409Z,2.70
2018-06-24T21:42:07.524Z,2.92
2018-06-24T21:44:36.847Z,2.57
2018-06-24T21:47:06.079Z,2.40
2018-06-24T21:49:35.404Z,3.00
2018-06-24T21:52:04.509Z,2.90
2018-06-24T21:54:33.696Z,3.63
2018-06-24T21:57:02.874Z,3.40
2018-06-24T21:59:32.200Z,4.00
2018-06-24T22:02:04.473Z,4.45
2018-06-24T22:04:33.610Z,5.43
2018-06-24T22:07:02.984Z,4.20
2018-06-24T22:09:32.161Z,4.43
2018-06-24T22:12:02.185Z,4.17
2018-06-24T22:14:31.293Z,4.60
2018-06-24T22:17:00.418Z,4.43
2018-06-24T22:19:29.688Z,4.72
2018-06-24T22:21:58.775Z,5.40
2018-06-24T22:24:27.868Z,5.43
2018-06-24T22:26:57.010Z,5.47
2018-06-24T22:29:26.534Z,4.80
2018-06-24T22:31:55.594Z,5.20
2018-06-24T22:34:24.757Z,5.40
2018-06-24T22:36:53.935Z,5.00
2018-06-24T22:39:23.116Z,6.50
2018-06-24T22:41:52.306Z,5.97
2018-06-24T22:44:21.767Z,6.97
2018-06-24T22:46:50.905Z,7.60
2018-06-24T22:49:20.107Z,6.28
2018-06-24T22:51:49.155Z,6.87
2018-06-24T22:54:18.564Z,6.60
2018-06-24T22:56:47.707Z,6.80
2018-06-24T22:59:28.165Z,6.63
2018-06-24T23:01:57.311Z,6.97
2018-06-24T23:04:26.470Z,6.60
2018-06-24T23:06:55.628Z,6.70
2018-06-24T23:09:24.949Z,7.30
2018-06-24T23:11:54.353Z,9.03
2018-06-24T23:14:23.538Z,10.13
2018-06-24T23:16:52.696Z,9.07
2018-06-24T23:19:21.885Z,8.43
2018-06-24T23:21:51.013Z,8.73
2018-06-24T23:24:20.208Z,9.65
2018-06-24T23:26:49.475Z,9.43
2018-06-24T23:29:18.670Z,9.70
2018-06-24T23:31:47.824Z,9.10
2018-06-24T23:34:16.877Z,9.03
2018-06-24T23:36:45.995Z,9.43
2018-06-24T23:39:15.155Z,10.00
2018-06-24T23:41:44.342Z,9.67
2018-06-24T23:44:13.521Z,9.63
2018-06-24T23:46:42.735Z,10.10
2018-06-24T23:49:11.924Z,9.50
2018-06-24T23:51:41.014Z,9.60
2018-06-24T23:54:10.138Z,9.80
2018-06-24T23:56:39.254Z,9.90
2018-06-24T23:59:08.376Z,9.57
